createdAt,value
2023-12-09T00:01:01.393Z,66.02
2023-12-09T00:03:29.012Z,66.03
2023-12-09T00:05:56.478Z,66.02
2023-12-09T00:08:23.867Z,66.17
2023-12-09T00:10:51.392Z,66.17
2023-12-09T00:13:18.793Z,66.50
2023-12-09T00:15:46.104Z,66.43
2023-12-09T00:18:14.318Z,66.48
2023-12-09T00:20:41.837Z,66.37
2023-12-09T00:23:10.490Z,66.35
2023-12-09T00:25:38.106Z,66.05
2023-12-09T00:28:05.661Z,66.00
2023-12-09T00:30:33.259Z,66.42
2023-12-09T00:33:00.957Z,66.21
2023-12-09T00:35:28.468Z,65.73
2023-12-09T00:37:55.741Z,66.00
2023-12-09T00:40:23.861Z,65.84
2023-12-09T00:42:51.109Z,66.09
2023-12-09T00:45:18.619Z,66.21
2023-12-09T00:47:46.090Z,66.40
2023-12-09T00:50:13.576Z,66.27
2023-12-09T00:52:40.839Z,66.37
2023-12-09T00:55:08.611Z,66.61
2023-12-09T00:57:35.849Z,66.30
2023-12-09T01:00:05.618Z,66.53
2023-12-09T01:02:33.471Z,66.31
2023-12-09T01:05:00.841Z,66.30
2023-12-09T01:07:28.456Z,66.15
2023-12-09T01:09:55.790Z,66.19
2023-12-09T01:12:23.179Z,66.08
2023-12-09T01:14:50.673Z,66.03
2023-12-09T01:17:18.172Z,65.98
2023-12-09T01:19:45.605Z,66.05
2023-12-09T01:22:13.713Z,66.02
2023-12-09T01:24:41.129Z,66.19
2023-12-09T01:27:08.524Z,66.48
2023-12-09T01:29:37.811Z,66.68
2023-12-09T01:32:05.364Z,66.61
2023-12-09T01:34:32.915Z,66.49
2023-12-09T01:37:00.656Z,66.95
2023-12-09T01:39:28.701Z,66.69
2023-12-09T01:41:57.463Z,66.82
2023-12-09T01:44:24.702Z,66.60
2023-12-09T01:46:52.242Z,66.63
2023-12-09T01:49:19.625Z,66.42
2023-12-09T01:51:47.275Z,66.62
2023-12-09T01:54:15.856Z,66.78
2023-12-09T01:56:43.594Z,66.94
2023-12-09T01:59:10.874Z,66.79
2023-12-09T02:01:39.072Z,66.96
2023-12-09T02:04:07.495Z,67.38
2023-12-09T02:06:35.246Z,66.85
2023-12-09T02:09:03.386Z,67.20
2023-12-09T02:11:36.524Z,67.32
2023-12-09T02:14:12.276Z,66.97
2023-12-09T02:16:45.353Z,67.25
2023-12-09T02:19:14.700Z,67.23
2023-12-09T02:22:05.005Z,67.78
2023-12-09T02:24:33.515Z,67.54
2023-12-09T02:27:09.939Z,67.95
2023-12-09T02:29:53.994Z,68.37
2023-12-09T02:32:23.751Z,67.53
2023-12-09T02:34:53.431Z,67.31
2023-12-09T02:37:22.771Z,67.78
2023-12-09T02:39:50.395Z,67.67
2023-12-09T02:42:19.121Z,67.82
2023-12-09T02:44:46.966Z,67.76
2023-12-09T02:47:15.840Z,67.70
2023-12-09T02:49:44.378Z,67.50
2023-12-09T02:52:12.488Z,67.41
2023-12-09T02:54:39.969Z,67.54
2023-12-09T02:57:07.325Z,67.60
2023-12-09T02:59:35.519Z,67.74
2023-12-09T03:02:02.763Z,67.89
2023-12-09T03:04:30.354Z,67.73
2023-12-09T03:06:59.015Z,67.86
2023-12-09T03:09:26.462Z,68.08
2023-12-09T03:11:56.003Z,67.92
2023-12-09T03:14:25.179Z,68.29
2023-12-09T03:16:52.439Z,67.71
2023-12-09T03:19:19.872Z,67.92
2023-12-09T03:21:47.204Z,67.88
2023-12-09T03:24:14.604Z,67.84
2023-12-09T03:26:41.854Z,67.66
2023-12-09T03:29:09.255Z,67.55
2023-12-09T03:31:42.196Z,67.52
2023-12-09T03:34:09.878Z,67.26
2023-12-09T03:39:05.202Z,67.27
2023-12-09T03:41:32.464Z,67.66
2023-12-09T03:44:00.086Z,67.38
2023-12-09T03:46:27.333Z,67.18
2023-12-09T03:51:22.344Z,67.24
2023-12-09T03:53:50.129Z,67.13
2023-12-09T03:56:23.264Z,67.44
2023-12-09T03:58:51.705Z,67.28
2023-12-09T04:01:19.612Z,67.72
2023-12-09T04:03:47.098Z,67.40
2023-12-09T04:06:14.414Z,67.43
2023-12-09T04:08:41.878Z,67.36
2023-12-09T04:11:09.250Z,67.55
2023-12-09T04:13:36.924Z,67.45
2023-12-09T04:16:06.008Z,67.58
2023-12-09T04:18:33.604Z,67.54
2023-12-09T04:21:01.128Z,67.60
2023-12-09T04:23:28.498Z,67.75
2023-12-09T04:25:55.803Z,67.62
2023-12-09T04:28:23.417Z,67.73
2023-12-09T04:30:50.645Z,67.58
2023-12-09T04:33:18.089Z,67.68
2023-12-09T04:35:45.433Z,67.50
2023-12-09T04:38:12.928Z,67.58
2023-12-09T04:40:40.390Z,67.54
2023-12-09T04:43:08.009Z,67.42
2023-12-09T04:45:35.455Z,67.52
2023-12-09T04:48:04.981Z,67.61
2023-12-09T04:50:32.465Z,67.54
2023-12-09T04:52:59.761Z,68.04
2023-12-09T04:55:27.931Z,67.71
2023-12-09T04:57:56.030Z,67.80
2023-12-09T05:00:23.398Z,67.61
2023-12-09T05:02:52.269Z,67.95
2023-12-09T05:05:20.433Z,67.70
2023-12-09T05:07:49.086Z,68.48
2023-12-09T05:10:16.685Z,67.80
2023-12-09T05:12:44.028Z,68.00
2023-12-09T05:15:12.314Z,67.96
2023-12-09T05:17:39.748Z,68.13
2023-12-09T05:20:08.148Z,68.05
2023-12-09T05:22:35.416Z,68.09
2023-12-09T05:25:03.815Z,68.11
2023-12-09T05:27:31.159Z,68.38
2023-12-09T05:29:58.550Z,68.00
2023-12-09T05:32:26.081Z,67.57
2023-12-09T05:34:53.697Z,67.62
2023-12-09T05:37:23.017Z,67.42
2023-12-09T05:39:50.549Z,67.43
2023-12-09T05:42:18.008Z,67.49
2023-12-09T05:44:45.407Z,66.96
2023-12-09T05:47:12.810Z,67.00
2023-12-09T05:49:40.345Z,66.74
2023-12-09T05:52:07.654Z,66.81
2023-12-09T05:54:38.408Z,66.89
2023-12-09T05:57:06.425Z,66.75
2023-12-09T05:59:33.654Z,66.45
2023-12-09T06:02:01.271Z,66.23
2023-12-09T06:04:28.633Z,66.31
2023-12-09T06:06:56.104Z,66.02
2023-12-09T06:09:23.608Z,66.05
2023-12-09T06:11:52.867Z,65.95
2023-12-09T06:14:20.157Z,66.14
2023-12-09T06:16:47.640Z,65.89
2023-12-09T06:19:15.148Z,65.98
2023-12-09T06:21:42.581Z,65.75
2023-12-09T06:24:09.973Z,66.10
2023-12-09T06:26:44.093Z,65.50
2023-12-09T06:29:16.122Z,65.20
2023-12-09T06:31:44.300Z,65.02
2023-12-09T06:34:12.203Z,64.86
2023-12-09T06:36:39.814Z,64.85
2023-12-09T06:39:07.211Z,64.74
2023-12-09T06:41:34.576Z,64.49
2023-12-09T06:44:01.940Z,64.36
2023-12-09T06:46:29.294Z,64.36
2023-12-09T06:48:56.699Z,64.72
2023-12-09T06:51:24.271Z,64.56
2023-12-09T06:53:51.596Z,64.43
2023-12-09T06:56:21.577Z,63.93
2023-12-09T06:58:49.539Z,63.99
2023-12-09T07:01:29.661Z,63.94
2023-12-09T07:03:57.658Z,64.02
2023-12-09T07:06:30.670Z,63.95
2023-12-09T07:08:58.760Z,63.84
2023-12-09T07:11:26.223Z,63.58
2023-12-09T07:13:53.630Z,63.72
2023-12-09T07:16:21.052Z,63.61
2023-12-09T07:18:52.849Z,63.40
2023-12-09T07:21:20.456Z,63.24
2023-12-09T07:23:47.842Z,63.21
2023-12-09T07:26:15.864Z,62.75
2023-12-09T07:28:44.448Z,63.33
2023-12-09T07:31:12.762Z,63.11
2023-12-09T07:33:40.064Z,62.06
2023-12-09T07:36:08.524Z,62.77
2023-12-09T07:38:36.143Z,62.04
2023-12-09T07:41:04.021Z,62.40
2023-12-09T07:43:33.032Z,61.99
2023-12-09T07:46:00.570Z,61.93
2023-12-09T07:48:28.988Z,61.72
2023-12-09T07:50:56.488Z,62.40
2023-12-09T07:53:24.626Z,62.28
2023-12-09T07:55:52.113Z,62.17
2023-12-09T07:58:19.519Z,62.00
2023-12-09T08:00:47.196Z,61.51
2023-12-09T08:03:14.666Z,61.19
2023-12-09T08:05:43.623Z,61.34
2023-12-09T08:08:12.562Z,61.56
2023-12-09T08:10:39.924Z,61.08
2023-12-09T08:13:09.956Z,61.38
2023-12-09T08:15:38.810Z,61.55
2023-12-09T08:18:06.521Z,61.93
2023-12-09T08:20:35.925Z,61.96
2023-12-09T08:23:04.982Z,61.87
2023-12-09T08:25:32.204Z,61.65
2023-12-09T08:27:59.612Z,61.53
2023-12-09T08:30:27.032Z,61.45
2023-12-09T08:32:54.938Z,61.13
2023-12-09T08:35:22.525Z,61.42
2023-12-09T08:37:50.296Z,60.97
2023-12-09T08:40:18.627Z,60.78
2023-12-09T08:42:47.163Z,60.72
2023-12-09T08:45:16.773Z,60.73
2023-12-09T08:47:45.718Z,60.57
2023-12-09T08:52:45.264Z,60.29
2023-12-09T08:55:12.503Z,60.74
2023-12-09T08:57:40.063Z,60.48
2023-12-09T09:00:09.805Z,60.67
2023-12-09T09:02:38.083Z,61.05
2023-12-09T09:05:06.391Z,61.16
2023-12-09T09:07:37.821Z,60.48
2023-12-09T09:10:05.877Z,60.47
2023-12-09T09:12:33.216Z,60.53
2023-12-09T09:15:04.597Z,60.53
2023-12-09T09:17:36.652Z,60.56
2023-12-09T09:20:06.993Z,60.80
2023-12-09T09:22:35.368Z,60.61
2023-12-09T09:25:02.799Z,60.79
2023-12-09T09:27:30.439Z,61.04
2023-12-09T09:29:57.890Z,61.08
2023-12-09T09:32:26.016Z,61.28
2023-12-09T09:34:56.100Z,61.62
2023-12-09T09:37:24.571Z,61.69
2023-12-09T09:39:52.743Z,61.52
2023-12-09T09:42:37.977Z,61.38
2023-12-09T09:45:27.137Z,61.26
2023-12-09T09:48:00.448Z,61.71
2023-12-09T09:50:28.274Z,61.44
2023-12-09T09:52:55.730Z,61.59
2023-12-09T09:55:24.338Z,61.95
2023-12-09T09:57:52.337Z,62.76
2023-12-09T10:00:21.078Z,62.72
2023-12-09T10:02:52.408Z,63.62
2023-12-09T10:05:23.732Z,63.82
2023-12-09T10:07:53.245Z,63.97
2023-12-09T10:10:20.938Z,64.17
2023-12-09T10:12:48.398Z,64.21
2023-12-09T10:15:15.741Z,64.67
2023-12-09T10:17:44.025Z,64.86
2023-12-09T10:20:12.430Z,65.14
2023-12-09T10:22:41.271Z,65.06
2023-12-09T10:25:09.229Z,64.76
2023-12-09T10:27:36.657Z,64.65
2023-12-09T10:30:04.897Z,64.61
2023-12-09T10:32:34.230Z,64.78
2023-12-09T10:35:04.522Z,64.46
2023-12-09T10:37:33.304Z,64.61
2023-12-09T10:40:05.334Z,64.54
2023-12-09T10:42:33.092Z,64.32
2023-12-09T10:45:05.089Z,64.83
2023-12-09T10:47:32.640Z,64.60
2023-12-09T10:50:00.084Z,64.27
2023-12-09T10:52:27.800Z,64.45
2023-12-09T10:54:55.388Z,64.50
2023-12-09T10:57:25.835Z,64.51
2023-12-09T10:59:55.272Z,64.29
2023-12-09T11:02:22.981Z,64.08
2023-12-09T11:04:51.826Z,64.24
2023-12-09T11:07:19.753Z,64.32
2023-12-09T11:09:47.866Z,64.63
2023-12-09T11:12:29.749Z,64.47
2023-12-09T11:15:09.090Z,64.63
2023-12-09T11:17:39.770Z,65.10
2023-12-09T11:20:16.159Z,65.33
2023-12-09T11:22:46.722Z,65.24
2023-12-09T11:25:27.500Z,65.38
2023-12-09T11:27:57.226Z,64.96
2023-12-09T11:30:38.880Z,64.93
2023-12-09T11:33:07.454Z,64.54
2023-12-09T11:35:36.451Z,64.12
2023-12-09T11:38:06.964Z,63.96
2023-12-09T11:40:34.754Z,63.99
2023-12-09T11:43:09.672Z,62.89
2023-12-09T11:45:38.458Z,62.91
2023-12-09T11:48:06.896Z,63.16
2023-12-09T11:50:34.584Z,62.77
2023-12-09T11:53:01.846Z,62.79
2023-12-09T11:55:30.678Z,63.18
2023-12-09T11:57:58.240Z,62.99
2023-12-09T12:00:25.533Z,62.84
2023-12-09T12:02:53.010Z,62.85
2023-12-09T12:05:21.287Z,63.33
2023-12-09T12:07:49.151Z,63.29
2023-12-09T12:10:16.565Z,63.26
2023-12-09T12:12:45.821Z,63.32
2023-12-09T12:15:14.072Z,63.56
2023-12-09T12:17:45.363Z,64.01
2023-12-09T12:20:14.132Z,64.14
2023-12-09T12:22:42.388Z,64.17
2023-12-09T12:25:10.891Z,64.53
2023-12-09T12:27:46.628Z,64.37
2023-12-09T12:30:17.376Z,64.71
2023-12-09T12:32:56.530Z,64.80
2023-12-09T12:35:26.479Z,64.92
2023-12-09T12:37:56.516Z,65.16
2023-12-09T12:40:24.068Z,65.16
2023-12-09T12:42:51.617Z,65.34
2023-12-09T12:45:27.048Z,64.99
2023-12-09T12:47:56.400Z,65.24
2023-12-09T12:50:23.785Z,65.45
2023-12-09T12:52:52.336Z,65.57
2023-12-09T12:55:19.821Z,65.06
2023-12-09T12:57:47.602Z,65.24
2023-12-09T13:00:15.979Z,64.80
2023-12-09T13:02:44.716Z,64.78
2023-12-09T13:05:12.776Z,64.93
2023-12-09T13:07:45.068Z,65.11
2023-12-09T13:10:13.096Z,64.51
2023-12-09T13:12:40.634Z,64.69
2023-12-09T13:15:08.749Z,64.85
2023-12-09T13:17:36.852Z,64.80
2023-12-09T13:20:04.685Z,65.91
2023-12-09T13:22:32.063Z,64.94
2023-12-09T13:24:59.571Z,64.89
2023-12-09T13:27:27.932Z,65.05
2023-12-09T13:29:55.915Z,65.26
2023-12-09T13:32:23.177Z,65.30
2023-12-09T13:34:52.572Z,65.13
2023-12-09T13:37:20.205Z,65.63
2023-12-09T13:39:47.681Z,65.56
2023-12-09T13:42:16.323Z,65.66
2023-12-09T13:44:43.977Z,64.85
2023-12-09T13:47:11.346Z,64.94
2023-12-09T13:49:38.864Z,65.73
2023-12-09T13:52:06.770Z,65.68
2023-12-09T13:54:34.610Z,65.93
2023-12-09T13:57:02.103Z,66.42
2023-12-09T13:59:29.681Z,66.17
2023-12-09T14:01:57.824Z,67.00
2023-12-09T14:04:25.176Z,67.97
2023-12-09T14:06:52.632Z,66.36
2023-12-09T14:09:20.213Z,67.07
2023-12-09T14:11:47.507Z,67.13
2023-12-09T14:14:15.274Z,68.64
2023-12-09T14:16:44.070Z,69.25
2023-12-09T14:19:14.502Z,69.00
2023-12-09T14:21:42.004Z,68.70
2023-12-09T14:24:09.996Z,69.67
2023-12-09T14:26:37.701Z,69.71
2023-12-09T14:29:05.102Z,69.37
2023-12-09T14:31:32.540Z,68.91
2023-12-09T14:34:03.182Z,69.41
2023-12-09T14:36:31.255Z,69.45
2023-12-09T14:38:58.653Z,69.27
2023-12-09T14:41:26.097Z,68.70
2023-12-09T14:43:59.679Z,70.22
2023-12-09T14:46:33.139Z,69.62
2023-12-09T14:49:01.588Z,69.00
2023-12-09T14:51:40.242Z,69.92
2023-12-09T14:54:16.525Z,70.05
2023-12-09T14:56:46.912Z,69.71
2023-12-09T14:59:16.715Z,70.68
2023-12-09T15:01:50.408Z,70.76
2023-12-09T15:04:18.653Z,70.54
2023-12-09T15:06:48.153Z,69.83
2023-12-09T15:09:17.602Z,70.02
2023-12-09T15:11:45.010Z,70.13
2023-12-09T15:14:12.510Z,69.57
2023-12-09T15:16:39.976Z,70.08
2023-12-09T15:19:09.975Z,70.39
2023-12-09T15:21:37.931Z,70.01
2023-12-09T15:24:06.924Z,69.55
2023-12-09T15:26:35.240Z,70.00
2023-12-09T15:29:02.579Z,70.46
2023-12-09T15:31:31.842Z,70.46
2023-12-09T15:34:00.483Z,70.03
2023-12-09T15:36:28.484Z,70.00
2023-12-09T15:38:55.922Z,70.40
2023-12-09T15:41:23.466Z,70.47
2023-12-09T15:43:51.226Z,71.02
2023-12-09T15:46:19.089Z,70.95
2023-12-09T15:48:46.831Z,71.31
2023-12-09T15:51:15.506Z,71.46
2023-12-09T15:53:43.143Z,71.05
2023-12-09T15:56:10.908Z,71.10
2023-12-09T15:58:38.379Z,70.96
2023-12-09T16:01:06.153Z,71.18
2023-12-09T16:03:33.869Z,71.00
2023-12-09T16:06:02.368Z,71.23
2023-12-09T16:08:29.792Z,71.34
2023-12-09T16:10:57.296Z,71.05
2023-12-09T16:13:25.024Z,70.86
2023-12-09T16:15:53.073Z,70.62
2023-12-09T16:18:20.681Z,71.13
2023-12-09T16:20:48.096Z,70.48
2023-12-09T16:23:15.650Z,70.81
2023-12-09T16:25:43.149Z,70.52
2023-12-09T16:28:10.569Z,70.17
2023-12-09T16:30:38.623Z,70.12
2023-12-09T16:33:06.261Z,69.61
2023-12-09T16:35:33.753Z,69.61
2023-12-09T16:38:01.115Z,69.45
2023-12-09T16:40:28.877Z,69.10
2023-12-09T16:42:56.509Z,69.16
2023-12-09T16:45:24.258Z,69.16
2023-12-09T16:47:52.769Z,69.26
2023-12-09T16:50:20.326Z,69.43
2023-12-09T16:52:47.627Z,69.04
2023-12-09T16:55:16.492Z,68.34
2023-12-09T16:57:45.031Z,67.69
2023-12-09T17:00:12.790Z,68.03
2023-12-09T17:02:40.346Z,68.35
2023-12-09T17:05:11.345Z,68.26
2023-12-09T17:07:39.105Z,67.87
2023-12-09T17:10:08.881Z,67.50
2023-12-09T17:12:38.104Z,67.15
2023-12-09T17:15:05.853Z,67.64
2023-12-09T17:17:33.482Z,67.27
2023-12-09T17:20:00.845Z,68.71
2023-12-09T17:22:32.466Z,69.21
2023-12-09T17:25:00.105Z,69.34
2023-12-09T17:27:27.882Z,69.82
2023-12-09T17:29:55.309Z,69.37
2023-12-09T17:32:22.898Z,69.90
2023-12-09T17:34:50.959Z,69.72
2023-12-09T17:37:18.526Z,69.50
2023-12-09T17:39:46.050Z,69.60
2023-12-09T17:42:13.730Z,69.37
2023-12-09T17:44:41.186Z,69.00
2023-12-09T17:47:08.575Z,68.47
2023-12-09T17:49:36.125Z,68.27
2023-12-09T17:52:03.639Z,68.02
2023-12-09T17:54:31.280Z,67.68
2023-12-09T17:56:58.628Z,68.15
2023-12-09T17:59:26.167Z,67.61
2023-12-09T18:01:54.395Z,68.66
2023-12-09T18:04:21.742Z,69.67
2023-12-09T18:06:49.113Z,68.64
2023-12-09T18:09:16.624Z,68.69
2023-12-09T18:11:44.240Z,68.82
2023-12-09T18:14:11.651Z,69.26
2023-12-09T18:16:39.103Z,69.22
2023-12-09T18:19:06.740Z,69.50
2023-12-09T18:21:34.593Z,69.61
2023-12-09T18:24:02.275Z,69.61
2023-12-09T18:26:32.861Z,69.19
2023-12-09T18:29:01.073Z,70.05
2023-12-09T18:31:29.207Z,70.70
2023-12-09T18:33:57.734Z,70.22
2023-12-09T18:36:25.467Z,71.21
2023-12-09T18:38:53.009Z,70.79
2023-12-09T18:41:20.543Z,70.68
2023-12-09T18:43:50.125Z,70.98
2023-12-09T18:46:17.967Z,70.04
2023-12-09T18:48:45.648Z,69.77
2023-12-09T18:51:13.184Z,70.61
2023-12-09T18:53:40.585Z,70.27
2023-12-09T18:56:08.285Z,70.57
2023-12-09T18:58:35.749Z,70.66
2023-12-09T19:01:08.040Z,71.01
2023-12-09T19:03:39.324Z,70.74
2023-12-09T19:06:07.513Z,71.71
2023-12-09T19:08:35.164Z,71.12
2023-12-09T19:11:02.578Z,70.39
2023-12-09T19:13:30.037Z,71.23
2023-12-09T19:15:59.736Z,71.33
2023-12-09T19:18:27.277Z,71.65
2023-12-09T19:20:54.729Z,71.39
2023-12-09T19:23:22.164Z,72.02
2023-12-09T19:25:49.636Z,71.15
2023-12-09T19:28:17.281Z,71.36
2023-12-09T19:30:44.728Z,71.51
2023-12-09T19:33:12.544Z,71.47
2023-12-09T19:35:40.059Z,70.50
2023-12-09T19:38:07.587Z,70.66
2023-12-09T19:40:35.760Z,71.19
2023-12-09T19:43:03.025Z,71.96
2023-12-09T19:45:30.336Z,71.00
2023-12-09T19:47:58.928Z,70.85
2023-12-09T19:50:26.337Z,71.00
2023-12-09T19:52:53.916Z,71.41
2023-12-09T19:55:21.432Z,70.89
2023-12-09T19:57:49.025Z,71.01
2023-12-09T20:00:16.651Z,71.43
2023-12-09T20:02:45.766Z,70.87
2023-12-09T20:05:13.908Z,71.17
2023-12-09T20:07:41.376Z,71.06
2023-12-09T20:10:09.390Z,70.60
2023-12-09T20:12:36.782Z,70.31
2023-12-09T20:15:07.663Z,70.46
2023-12-09T20:17:35.307Z,70.56
2023-12-09T20:20:02.825Z,70.06
2023-12-09T20:22:31.827Z,69.78
2023-12-09T20:24:59.436Z,70.15
2023-12-09T20:27:26.978Z,70.42
2023-12-09T20:29:55.521Z,70.50
2023-12-09T20:32:23.298Z,70.08
2023-12-09T20:34:50.852Z,70.53
2023-12-09T20:37:18.427Z,70.91
2023-12-09T20:39:45.822Z,70.39
2023-12-09T20:42:13.402Z,70.62
2023-12-09T20:44:41.584Z,71.04
2023-12-09T20:47:08.940Z,71.13
2023-12-09T20:49:37.359Z,71.15
2023-12-09T20:52:05.177Z,70.97
2023-12-09T20:54:32.643Z,70.69
2023-12-09T20:57:00.182Z,70.71
2023-12-09T20:59:27.728Z,70.23
2023-12-09T21:01:57.043Z,70.45
2023-12-09T21:04:24.656Z,70.86
2023-12-09T21:06:52.443Z,70.99
2023-12-09T21:09:22.570Z,70.77
2023-12-09T21:11:50.123Z,70.38
2023-12-09T21:14:17.878Z,70.46
2023-12-09T21:16:45.290Z,69.70
2023-12-09T21:19:13.248Z,70.05
2023-12-09T21:21:40.992Z,70.21
2023-12-09T21:24:08.632Z,70.14
2023-12-09T21:26:39.265Z,70.58
2023-12-09T21:29:08.074Z,71.23
2023-12-09T21:31:35.466Z,71.13
2023-12-09T21:34:03.838Z,70.88
2023-12-09T21:36:31.331Z,70.84
2023-12-09T21:38:58.789Z,70.98
2023-12-09T21:41:26.121Z,70.96
2023-12-09T21:43:53.548Z,71.17
2023-12-09T21:46:21.568Z,70.83
2023-12-09T21:48:49.603Z,71.14
2023-12-09T21:51:17.938Z,70.42
2023-12-09T21:53:45.665Z,70.63
2023-12-09T21:56:26.298Z,71.00
2023-12-09T21:58:54.151Z,71.00
2023-12-09T22:01:22.279Z,70.89
2023-12-09T22:03:50.629Z,70.89
2023-12-09T22:06:17.795Z,70.95
2023-12-09T22:08:45.757Z,70.99
2023-12-09T22:11:13.690Z,71.24
2023-12-09T22:13:41.826Z,71.50
2023-12-09T22:16:09.669Z,71.24
2023-12-09T22:18:37.690Z,71.54
2023-12-09T22:21:05.428Z,71.40
2023-12-09T22:23:32.801Z,71.20
2023-12-09T22:26:00.240Z,71.47
2023-12-09T22:28:31.698Z,71.64
2023-12-09T22:30:59.171Z,71.93
2023-12-09T22:33:26.634Z,72.17
2023-12-09T22:35:54.191Z,72.57
2023-12-09T22:38:21.476Z,72.43
2023-12-09T22:40:49.042Z,72.57
2023-12-09T22:43:16.457Z,72.34
2023-12-09T22:45:43.863Z,71.82
2023-12-09T22:48:11.683Z,71.91
2023-12-09T22:50:39.126Z,71.78
2023-12-09T22:53:06.578Z,71.78
2023-12-09T22:55:34.332Z,72.09
2023-12-09T22:58:01.701Z,72.37
2023-12-09T23:00:33.292Z,72.39
2023-12-09T23:03:02.867Z,72.45
2023-12-09T23:05:30.290Z,72.55
2023-12-09T23:07:58.284Z,72.57
2023-12-09T23:10:25.875Z,72.38
2023-12-09T23:12:53.394Z,72.61
2023-12-09T23:15:22.353Z,72.38
2023-12-09T23:17:50.183Z,72.32
2023-12-09T23:20:17.683Z,72.38
2023-12-09T23:22:45.111Z,72.38
2023-12-09T23:25:12.512Z,72.78
2023-12-09T23:27:39.907Z,72.64
2023-12-09T23:30:08.049Z,72.64
2023-12-09T23:32:35.475Z,73.17
2023-12-09T23:35:02.760Z,72.66
2023-12-09T23:37:30.319Z,72.60
2023-12-09T23:39:57.660Z,72.81
2023-12-09T23:42:25.100Z,72.64
2023-12-09T23:44:52.367Z,72.92
2023-12-09T23:47:19.858Z,72.74
2023-12-09T23:49:47.423Z,72.98
2023-12-09T23:52:14.973Z,72.80
2023-12-09T23:54:42.515Z,72.77
2023-12-09T23:57:10.122Z,72.71
2023-12-09T23:59:37.439Z,72.91
